sensor_id;sensor_type;location;lat;lon;timestamp;P1;durP1;ratioP1;P2;durP2;ratioP2
7205;SDS011;3644;53.480;10.004;2023-08-24T00:00:06;15.33;;;6.03;;
7205;SDS011;3644;53.480;10.004;2023-08-24T00:02:32;8.50;;;4.57;;
7205;SDS011;3644;53.480;10.004;2023-08-24T00:04:58;10.40;;;4.53;;
7205;SDS011;3644;53.480;10.004;2023-08-24T00:07:23;10.83;;;5.70;;
7205;SDS011;3644;53.480;10.004;2023-08-24T00:09:48;6.00;;;4.57;;
7205;SDS011;3644;53.480;10.004;2023-08-24T00:12:18;4.60;;;3.50;;
7205;SDS011;3644;53.480;10.004;2023-08-24T00:14:43;7.93;;;5.77;;
7205;SDS011;3644;53.480;10.004;2023-08-24T00:17:09;10.53;;;6.03;;
7205;SDS011;3644;53.480;10.004;2023-08-24T00:19:34;8.60;;;5.83;;
7205;SDS011;3644;53.480;10.004;2023-08-24T00:21:59;10.83;;;5.60;;
7205;SDS011;3644;53.480;10.004;2023-08-24T00:24:26;12.27;;;8.23;;
7205;SDS011;3644;53.480;10.004;2023-08-24T00:26:51;12.20;;;6.60;;
7205;SDS011;3644;53.480;10.004;2023-08-24T00:29:17;13.30;;;9.07;;
7205;SDS011;3644;53.480;10.004;2023-08-24T00:31:42;18.10;;;6.60;;
7205;SDS011;3644;53.480;10.004;2023-08-24T00:34:08;10.63;;;6.63;;
7205;SDS011;3644;53.480;10.004;2023-08-24T00:36:34;10.47;;;5.43;;
7205;SDS011;3644;53.480;10.004;2023-08-24T00:38:59;9.70;;;6.10;;
7205;SDS011;3644;53.480;10.004;2023-08-24T00:41:25;5.77;;;4.30;;
7205;SDS011;3644;53.480;10.004;2023-08-24T00:43:51;11.07;;;5.97;;
7205;SDS011;3644;53.480;10.004;2023-08-24T00:46:16;7.30;;;4.67;;
7205;SDS011;3644;53.480;10.004;2023-08-24T00:48:43;6.43;;;4.70;;
7205;SDS011;3644;53.480;10.004;2023-08-24T00:51:09;6.23;;;5.10;;
7205;SDS011;3644;53.480;10.004;2023-08-24T00:53:34;10.90;;;4.20;;
7205;SDS011;3644;53.480;10.004;2023-08-24T00:56:01;6.90;;;3.57;;
7205;SDS011;3644;53.480;10.004;2023-08-24T00:58:27;6.13;;;4.73;;
7205;SDS011;3644;53.480;10.004;2023-08-24T01:00:53;5.80;;;3.60;;
7205;SDS011;3644;53.480;10.004;2023-08-24T01:03:23;6.80;;;3.50;;
7205;SDS011;3644;53.480;10.004;2023-08-24T01:05:49;10.10;;;3.50;;
7205;SDS011;3644;53.480;10.004;2023-08-24T01:08:15;5.60;;;3.23;;
7205;SDS011;3644;53.480;10.004;2023-08-24T01:10:44;4.37;;;2.97;;
7205;SDS011;3644;53.480;10.004;2023-08-24T01:16:28;10.33;;;3.70;;
7205;SDS011;3644;53.480;10.004;2023-08-24T01:18:56;8.93;;;4.97;;
7205;SDS011;3644;53.480;10.004;2023-08-24T01:21:24;8.43;;;4.83;;
7205;SDS011;3644;53.480;10.004;2023-08-24T01:26:38;8.27;;;3.47;;
7205;SDS011;3644;53.480;10.004;2023-08-24T01:29:05;7.70;;;3.70;;
7205;SDS011;3644;53.480;10.004;2023-08-24T01:31:32;5.57;;;3.27;;
7205;SDS011;3644;53.480;10.004;2023-08-24T01:33:57;6.67;;;3.07;;
7205;SDS011;3644;53.480;10.004;2023-08-24T01:36:23;7.53;;;4.40;;
7205;SDS011;3644;53.480;10.004;2023-08-24T01:38:53;8.00;;;3.57;;
7205;SDS011;3644;53.480;10.004;2023-08-24T01:41:31;4.03;;;3.53;;
7205;SDS011;3644;53.480;10.004;2023-08-24T01:44:03;6.43;;;3.17;;
7205;SDS011;3644;53.480;10.004;2023-08-24T01:46:31;9.20;;;3.67;;
7205;SDS011;3644;53.480;10.004;2023-08-24T01:48:58;16.27;;;3.77;;
7205;SDS011;3644;53.480;10.004;2023-08-24T01:51:24;4.20;;;3.03;;
7205;SDS011;3644;53.480;10.004;2023-08-24T01:53:51;8.43;;;3.03;;
7205;SDS011;3644;53.480;10.004;2023-08-24T01:56:17;5.20;;;3.60;;
7205;SDS011;3644;53.480;10.004;2023-08-24T01:58:42;6.70;;;3.47;;
7205;SDS011;3644;53.480;10.004;2023-08-24T02:01:08;8.50;;;3.63;;
7205;SDS011;3644;53.480;10.004;2023-08-24T02:03:35;3.37;;;3.07;;
7205;SDS011;3644;53.480;10.004;2023-08-24T02:06:01;5.17;;;2.73;;
7205;SDS011;3644;53.480;10.004;2023-08-24T02:08:26;10.23;;;4.03;;
7205;SDS011;3644;53.480;10.004;2023-08-24T02:10:52;3.97;;;2.57;;
7205;SDS011;3644;53.480;10.004;2023-08-24T02:13:17;13.13;;;2.73;;
7205;SDS011;3644;53.480;10.004;2023-08-24T02:15:43;4.77;;;2.83;;
7205;SDS011;3644;53.480;10.004;2023-08-24T02:18:10;3.83;;;3.33;;
7205;SDS011;3644;53.480;10.004;2023-08-24T02:20:36;5.30;;;2.40;;
7205;SDS011;3644;53.480;10.004;2023-08-24T02:23:02;2.83;;;2.43;;
7205;SDS011;3644;53.480;10.004;2023-08-24T02:25:28;5.73;;;2.60;;
7205;SDS011;3644;53.480;10.004;2023-08-24T02:27:54;6.10;;;2.23;;
7205;SDS011;3644;53.480;10.004;2023-08-24T02:30:20;4.77;;;2.60;;
7205;SDS011;3644;53.480;10.004;2023-08-24T02:32:45;4.70;;;1.93;;
7205;SDS011;3644;53.480;10.004;2023-08-24T02:35:11;5.83;;;2.10;;
7205;SDS011;3644;53.480;10.004;2023-08-24T02:37:36;4.30;;;2.70;;
7205;SDS011;3644;53.480;10.004;2023-08-24T02:40:02;3.70;;;1.83;;
7205;SDS011;3644;53.480;10.004;2023-08-24T02:42:30;3.60;;;2.13;;
7205;SDS011;3644;53.480;10.004;2023-08-24T02:44:56;3.40;;;2.43;;
7205;SDS011;3644;53.480;10.004;2023-08-24T02:47:22;5.20;;;2.10;;
7205;SDS011;3644;53.480;10.004;2023-08-24T02:49:47;2.80;;;2.13;;
7205;SDS011;3644;53.480;10.004;2023-08-24T02:52:13;2.90;;;2.30;;
7205;SDS011;3644;53.480;10.004;2023-08-24T02:54:38;3.60;;;2.50;;
7205;SDS011;3644;53.480;10.004;2023-08-24T02:57:04;4.70;;;1.80;;
7205;SDS011;3644;53.480;10.004;2023-08-24T02:59:30;2.30;;;2.00;;
7205;SDS011;3644;53.480;10.004;2023-08-24T03:01:55;3.03;;;2.00;;
7205;SDS011;3644;53.480;10.004;2023-08-24T03:04:21;7.03;;;2.30;;
7205;SDS011;3644;53.480;10.004;2023-08-24T03:06:47;3.30;;;2.07;;
7205;SDS011;3644;53.480;10.004;2023-08-24T03:09:12;2.93;;;2.23;;
7205;SDS011;3644;53.480;10.004;2023-08-24T03:11:38;3.47;;;1.90;;
7205;SDS011;3644;53.480;10.004;2023-08-24T03:14:03;3.53;;;2.03;;
7205;SDS011;3644;53.480;10.004;2023-08-24T03:16:29;3.10;;;2.27;;
7205;SDS011;3644;53.480;10.004;2023-08-24T03:18:54;6.17;;;1.97;;
7205;SDS011;3644;53.480;10.004;2023-08-24T03:21:20;4.93;;;2.33;;
7205;SDS011;3644;53.480;10.004;2023-08-24T03:23:46;4.67;;;2.17;;
7205;SDS011;3644;53.480;10.004;2023-08-24T03:26:11;6.27;;;2.50;;
7205;SDS011;3644;53.480;10.004;2023-08-24T03:28:37;6.27;;;2.60;;
7205;SDS011;3644;53.480;10.004;2023-08-24T03:31:02;2.60;;;2.40;;
7205;SDS011;3644;53.480;10.004;2023-08-24T03:33:28;4.13;;;2.03;;
7205;SDS011;3644;53.480;10.004;2023-08-24T03:35:54;2.00;;;1.80;;
7205;SDS011;3644;53.480;10.004;2023-08-24T03:38:19;3.90;;;2.27;;
7205;SDS011;3644;53.480;10.004;2023-08-24T03:40:45;2.07;;;1.97;;
7205;SDS011;3644;53.480;10.004;2023-08-24T03:43:10;3.33;;;2.23;;
7205;SDS011;3644;53.480;10.004;2023-08-24T03:45:36;5.50;;;2.50;;
7205;SDS011;3644;53.480;10.004;2023-08-24T03:48:01;2.40;;;2.20;;
7205;SDS011;3644;53.480;10.004;2023-08-24T03:50:27;2.30;;;2.10;;
7205;SDS011;3644;53.480;10.004;2023-08-24T03:52:53;3.10;;;2.33;;
7205;SDS011;3644;53.480;10.004;2023-08-24T03:55:19;2.93;;;2.27;;
7205;SDS011;3644;53.480;10.004;2023-08-24T03:57:45;4.10;;;2.30;;
7205;SDS011;3644;53.480;10.004;2023-08-24T04:00:11;7.40;;;2.20;;
7205;SDS011;3644;53.480;10.004;2023-08-24T04:02:37;4.27;;;1.70;;
7205;SDS011;3644;53.480;10.004;2023-08-24T04:05:04;9.97;;;2.07;;
7205;SDS011;3644;53.480;10.004;2023-08-24T04:07:29;2.87;;;1.60;;
7205;SDS011;3644;53.480;10.004;2023-08-24T04:09:56;2.73;;;1.60;;
7205;SDS011;3644;53.480;10.004;2023-08-24T04:12:21;1.90;;;1.80;;
7205;SDS011;3644;53.480;10.004;2023-08-24T04:14:47;3.17;;;1.70;;
7205;SDS011;3644;53.480;10.004;2023-08-24T04:17:12;1.90;;;1.80;;
7205;SDS011;3644;53.480;10.004;2023-08-24T04:19:38;2.40;;;2.20;;
7205;SDS011;3644;53.480;10.004;2023-08-24T04:22:04;3.17;;;2.00;;
7205;SDS011;3644;53.480;10.004;2023-08-24T04:24:30;2.63;;;2.40;;
7205;SDS011;3644;53.480;10.004;2023-08-24T04:26:55;5.03;;;2.60;;
7205;SDS011;3644;53.480;10.004;2023-08-24T04:29:21;10.50;;;3.20;;
7205;SDS011;3644;53.480;10.004;2023-08-24T04:31:47;12.70;;;3.30;;
7205;SDS011;3644;53.480;10.004;2023-08-24T04:34:12;4.43;;;3.07;;
7205;SDS011;3644;53.480;10.004;2023-08-24T04:36:38;5.27;;;2.83;;
7205;SDS011;3644;53.480;10.004;2023-08-24T04:39:03;7.23;;;3.47;;
7205;SDS011;3644;53.480;10.004;2023-08-24T04:41:29;6.60;;;2.73;;
7205;SDS011;3644;53.480;10.004;2023-08-24T04:43:54;7.00;;;3.30;;
7205;SDS011;3644;53.480;10.004;2023-08-24T04:46:20;6.10;;;2.73;;
7205;SDS011;3644;53.480;10.004;2023-08-24T04:48:45;6.40;;;3.07;;
7205;SDS011;3644;53.480;10.004;2023-08-24T04:51:11;6.57;;;3.10;;
7205;SDS011;3644;53.480;10.004;2023-08-24T04:53:36;4.77;;;2.77;;
7205;SDS011;3644;53.480;10.004;2023-08-24T04:56:02;3.50;;;2.60;;
7205;SDS011;3644;53.480;10.004;2023-08-24T04:58:27;3.67;;;2.53;;
7205;SDS011;3644;53.480;10.004;2023-08-24T05:00:53;3.33;;;2.13;;
7205;SDS011;3644;53.480;10.004;2023-08-24T05:03:20;6.07;;;2.90;;
7205;SDS011;3644;53.480;10.004;2023-08-24T05:05:46;9.90;;;3.00;;
7205;SDS011;3644;53.480;10.004;2023-08-24T05:08:12;7.83;;;2.50;;
7205;SDS011;3644;53.480;10.004;2023-08-24T05:10:38;7.47;;;3.00;;
7205;SDS011;3644;53.480;10.004;2023-08-24T05:13:03;5.63;;;2.93;;
7205;SDS011;3644;53.480;10.004;2023-08-24T05:15:29;4.40;;;2.83;;
7205;SDS011;3644;53.480;10.004;2023-08-24T05:17:55;7.20;;;2.83;;
7205;SDS011;3644;53.480;10.004;2023-08-24T05:20:24;5.33;;;2.40;;
7205;SDS011;3644;53.480;10.004;2023-08-24T05:22:50;4.43;;;2.43;;
7205;SDS011;3644;53.480;10.004;2023-08-24T05:25:15;4.47;;;2.17;;
7205;SDS011;3644;53.480;10.004;2023-08-24T05:27:41;3.00;;;2.77;;
7205;SDS011;3644;53.480;10.004;2023-08-24T05:30:07;9.13;;;3.10;;
7205;SDS011;3644;53.480;10.004;2023-08-24T05:32:33;10.30;;;2.53;;
7205;SDS011;3644;53.480;10.004;2023-08-24T05:35:02;2.77;;;2.40;;
7205;SDS011;3644;53.480;10.004;2023-08-24T05:37:28;3.77;;;2.50;;
7205;SDS011;3644;53.480;10.004;2023-08-24T05:39:54;3.00;;;2.43;;
7205;SDS011;3644;53.480;10.004;2023-08-24T05:42:19;5.20;;;3.13;;
7205;SDS011;3644;53.480;10.004;2023-08-24T05:44:45;4.17;;;2.20;;
7205;SDS011;3644;53.480;10.004;2023-08-24T05:47:10;5.40;;;2.73;;
7205;SDS011;3644;53.480;10.004;2023-08-24T05:49:36;4.30;;;2.70;;
7205;SDS011;3644;53.480;10.004;2023-08-24T05:52:01;7.33;;;3.53;;
7205;SDS011;3644;53.480;10.004;2023-08-24T05:54:27;3.23;;;2.90;;
7205;SDS011;3644;53.480;10.004;2023-08-24T05:56:52;6.93;;;3.70;;
7205;SDS011;3644;53.480;10.004;2023-08-24T05:59:18;9.00;;;4.47;;
7205;SDS011;3644;53.480;10.004;2023-08-24T06:01:43;7.77;;;4.80;;
7205;SDS011;3644;53.480;10.004;2023-08-24T06:04:09;7.63;;;5.13;;
7205;SDS011;3644;53.480;10.004;2023-08-24T06:06:35;6.10;;;4.60;;
7205;SDS011;3644;53.480;10.004;2023-08-24T06:09:00;8.60;;;5.27;;
7205;SDS011;3644;53.480;10.004;2023-08-24T06:11:29;6.80;;;5.67;;
7205;SDS011;3644;53.480;10.004;2023-08-24T06:13:54;12.77;;;7.53;;
7205;SDS011;3644;53.480;10.004;2023-08-24T06:16:20;6.53;;;5.00;;
7205;SDS011;3644;53.480;10.004;2023-08-24T06:18:45;4.27;;;3.87;;
7205;SDS011;3644;53.480;10.004;2023-08-24T06:21:11;10.43;;;4.50;;
7205;SDS011;3644;53.480;10.004;2023-08-24T06:23:37;7.00;;;5.23;;
7205;SDS011;3644;53.480;10.004;2023-08-24T06:26:03;7.43;;;4.73;;
7205;SDS011;3644;53.480;10.004;2023-08-24T06:28:29;22.73;;;6.27;;
7205;SDS011;3644;53.480;10.004;2023-08-24T06:30:55;6.50;;;4.40;;
7205;SDS011;3644;53.480;10.004;2023-08-24T06:33:21;6.43;;;4.90;;
7205;SDS011;3644;53.480;10.004;2023-08-24T06:35:55;15.90;;;6.50;;
7205;SDS011;3644;53.480;10.004;2023-08-24T06:38:23;5.90;;;3.97;;
7205;SDS011;3644;53.480;10.004;2023-08-24T06:40:50;10.33;;;4.00;;
7205;SDS011;3644;53.480;10.004;2023-08-24T06:43:15;7.73;;;4.13;;
7205;SDS011;3644;53.480;10.004;2023-08-24T06:45:41;7.10;;;4.20;;
7205;SDS011;3644;53.480;10.004;2023-08-24T06:48:06;6.13;;;4.23;;
7205;SDS011;3644;53.480;10.004;2023-08-24T06:50:32;7.70;;;4.57;;
7205;SDS011;3644;53.480;10.004;2023-08-24T06:52:58;7.00;;;5.40;;
7205;SDS011;3644;53.480;10.004;2023-08-24T06:55:24;6.30;;;3.50;;
7205;SDS011;3644;53.480;10.004;2023-08-24T06:57:51;4.93;;;4.30;;
7205;SDS011;3644;53.480;10.004;2023-08-24T07:00:17;6.93;;;3.67;;
7205;SDS011;3644;53.480;10.004;2023-08-24T07:02:44;4.53;;;2.70;;
7205;SDS011;3644;53.480;10.004;2023-08-24T07:05:11;6.77;;;3.77;;
7205;SDS011;3644;53.480;10.004;2023-08-24T07:07:37;9.67;;;3.90;;
7205;SDS011;3644;53.480;10.004;2023-08-24T07:10:03;5.63;;;3.60;;
7205;SDS011;3644;53.480;10.004;2023-08-24T07:12:29;4.70;;;3.83;;
7205;SDS011;3644;53.480;10.004;2023-08-24T07:14:54;14.00;;;4.87;;
7205;SDS011;3644;53.480;10.004;2023-08-24T07:17:20;6.73;;;4.17;;
7205;SDS011;3644;53.480;10.004;2023-08-24T07:19:45;4.33;;;3.40;;
7205;SDS011;3644;53.480;10.004;2023-08-24T07:22:11;7.70;;;3.47;;
7205;SDS011;3644;53.480;10.004;2023-08-24T07:24:36;8.30;;;3.30;;
7205;SDS011;3644;53.480;10.004;2023-08-24T07:27:02;9.27;;;3.30;;
7205;SDS011;3644;53.480;10.004;2023-08-24T07:29:30;3.90;;;3.20;;
7205;SDS011;3644;53.480;10.004;2023-08-24T07:31:56;4.60;;;2.77;;
7205;SDS011;3644;53.480;10.004;2023-08-24T07:34:22;5.83;;;2.70;;
7205;SDS011;3644;53.480;10.004;2023-08-24T07:36:48;4.27;;;2.50;;
7205;SDS011;3644;53.480;10.004;2023-08-24T07:39:13;5.87;;;2.90;;
7205;SDS011;3644;53.480;10.004;2023-08-24T07:41:40;3.20;;;2.23;;
7205;SDS011;3644;53.480;10.004;2023-08-24T07:44:06;3.10;;;2.13;;
7205;SDS011;3644;53.480;10.004;2023-08-24T07:46:32;4.60;;;2.70;;
7205;SDS011;3644;53.480;10.004;2023-08-24T07:48:57;4.30;;;2.03;;
7205;SDS011;3644;53.480;10.004;2023-08-24T07:51:23;2.37;;;1.93;;
7205;SDS011;3644;53.480;10.004;2023-08-24T07:53:48;7.83;;;2.40;;
7205;SDS011;3644;53.480;10.004;2023-08-24T07:56:17;3.03;;;1.73;;
7205;SDS011;3644;53.480;10.004;2023-08-24T07:58:43;2.60;;;1.97;;
7205;SDS011;3644;53.480;10.004;2023-08-24T08:01:08;3.07;;;2.03;;
7205;SDS011;3644;53.480;10.004;2023-08-24T08:03:34;2.20;;;2.00;;
7205;SDS011;3644;53.480;10.004;2023-08-24T08:06:00;3.43;;;2.10;;
7205;SDS011;3644;53.480;10.004;2023-08-24T08:08:26;2.67;;;1.57;;
7205;SDS011;3644;53.480;10.004;2023-08-24T08:10:58;1.67;;;1.30;;
7205;SDS011;3644;53.480;10.004;2023-08-24T08:13:25;2.47;;;2.10;;
7205;SDS011;3644;53.480;10.004;2023-08-24T08:15:51;3.33;;;1.20;;
7205;SDS011;3644;53.480;10.004;2023-08-24T08:18:17;4.87;;;1.67;;
7205;SDS011;3644;53.480;10.004;2023-08-24T08:20:42;5.50;;;1.57;;
7205;SDS011;3644;53.480;10.004;2023-08-24T08:23:08;3.53;;;1.57;;
7205;SDS011;3644;53.480;10.004;2023-08-24T08:25:33;6.50;;;1.90;;
7205;SDS011;3644;53.480;10.004;2023-08-24T08:27:59;3.27;;;1.77;;
7205;SDS011;3644;53.480;10.004;2023-08-24T08:30:24;3.03;;;2.00;;
7205;SDS011;3644;53.480;10.004;2023-08-24T08:32:50;2.30;;;1.77;;
7205;SDS011;3644;53.480;10.004;2023-08-24T08:35:17;5.33;;;1.60;;
7205;SDS011;3644;53.480;10.004;2023-08-24T08:37:43;2.70;;;1.53;;
7205;SDS011;3644;53.480;10.004;2023-08-24T08:40:10;2.20;;;1.83;;
7205;SDS011;3644;53.480;10.004;2023-08-24T08:42:36;1.70;;;1.50;;
7205;SDS011;3644;53.480;10.004;2023-08-24T08:45:02;2.37;;;1.63;;
7205;SDS011;3644;53.480;10.004;2023-08-24T08:47:32;2.40;;;1.83;;
7205;SDS011;3644;53.480;10.004;2023-08-24T08:49:58;8.93;;;1.97;;
7205;SDS011;3644;53.480;10.004;2023-08-24T08:52:27;8.97;;;2.23;;
7205;SDS011;3644;53.480;10.004;2023-08-24T08:54:53;3.47;;;1.33;;
7205;SDS011;3644;53.480;10.004;2023-08-24T08:57:19;2.90;;;2.10;;
7205;SDS011;3644;53.480;10.004;2023-08-24T08:59:47;6.00;;;2.30;;
7205;SDS011;3644;53.480;10.004;2023-08-24T09:02:16;4.13;;;2.20;;
7205;SDS011;3644;53.480;10.004;2023-08-24T09:04:43;2.33;;;2.07;;
7205;SDS011;3644;53.480;10.004;2023-08-24T09:07:10;7.23;;;2.30;;
7205;SDS011;3644;53.480;10.004;2023-08-24T09:09:38;12.50;;;2.70;;
7205;SDS011;3644;53.480;10.004;2023-08-24T09:12:04;8.90;;;3.07;;
7205;SDS011;3644;53.480;10.004;2023-08-24T09:14:31;3.33;;;2.40;;
7205;SDS011;3644;53.480;10.004;2023-08-24T09:16:56;3.03;;;2.00;;
7205;SDS011;3644;53.480;10.004;2023-08-24T09:19:28;2.83;;;2.00;;
7205;SDS011;3644;53.480;10.004;2023-08-24T09:21:58;4.30;;;2.00;;
7205;SDS011;3644;53.480;10.004;2023-08-24T09:24:33;3.40;;;1.97;;
7205;SDS011;3644;53.480;10.004;2023-08-24T09:26:59;4.63;;;2.13;;
7205;SDS011;3644;53.480;10.004;2023-08-24T09:29:28;8.20;;;2.33;;
7205;SDS011;3644;53.480;10.004;2023-08-24T09:32:02;2.23;;;1.87;;
7205;SDS011;3644;53.480;10.004;2023-08-24T09:34:27;9.20;;;2.33;;
7205;SDS011;3644;53.480;10.004;2023-08-24T09:36:56;2.30;;;1.70;;
7205;SDS011;3644;53.480;10.004;2023-08-24T09:39:22;4.93;;;1.90;;
7205;SDS011;3644;53.480;10.004;2023-08-24T09:41:49;5.57;;;1.80;;
7205;SDS011;3644;53.480;10.004;2023-08-24T09:44:19;3.30;;;2.20;;
7205;SDS011;3644;53.480;10.004;2023-08-24T09:46:45;4.50;;;2.20;;
7205;SDS011;3644;53.480;10.004;2023-08-24T09:49:11;4.97;;;1.70;;
7205;SDS011;3644;53.480;10.004;2023-08-24T09:51:37;1.73;;;1.63;;
7205;SDS011;3644;53.480;10.004;2023-08-24T09:54:06;4.37;;;1.40;;
7205;SDS011;3644;53.480;10.004;2023-08-24T09:56:37;1.90;;;1.80;;
7205;SDS011;3644;53.480;10.004;2023-08-24T09:59:16;3.40;;;1.80;;
7205;SDS011;3644;53.480;10.004;2023-08-24T10:01:47;8.17;;;2.80;;
7205;SDS011;3644;53.480;10.004;2023-08-24T10:04:14;3.93;;;1.93;;
7205;SDS011;3644;53.480;10.004;2023-08-24T10:06:42;2.53;;;2.33;;
7205;SDS011;3644;53.480;10.004;2023-08-24T10:09:21;5.50;;;2.07;;
7205;SDS011;3644;53.480;10.004;2023-08-24T10:11:52;2.73;;;2.07;;
7205;SDS011;3644;53.480;10.004;2023-08-24T10:14:31;3.47;;;2.13;;
7205;SDS011;3644;53.480;10.004;2023-08-24T10:17:01;2.27;;;1.53;;
7205;SDS011;3644;53.480;10.004;2023-08-24T10:19:27;3.70;;;2.47;;
7205;SDS011;3644;53.480;10.004;2023-08-24T10:21:54;3.20;;;1.87;;
7205;SDS011;3644;53.480;10.004;2023-08-24T10:24:22;5.00;;;2.03;;
7205;SDS011;3644;53.480;10.004;2023-08-24T10:26:48;3.00;;;2.13;;
7205;SDS011;3644;53.480;10.004;2023-08-24T10:29:15;7.23;;;2.20;;
7205;SDS011;3644;53.480;10.004;2023-08-24T10:31:42;4.50;;;2.83;;
7205;SDS011;3644;53.480;10.004;2023-08-24T10:34:08;2.10;;;2.00;;
7205;SDS011;3644;53.480;10.004;2023-08-24T10:36:34;3.00;;;1.90;;
7205;SDS011;3644;53.480;10.004;2023-08-24T10:39:03;4.90;;;2.47;;
7205;SDS011;3644;53.480;10.004;2023-08-24T10:44:24;3.10;;;2.37;;
7205;SDS011;3644;53.480;10.004;2023-08-24T10:49:40;7.73;;;2.37;;
7205;SDS011;3644;53.480;10.004;2023-08-24T10:54:55;2.70;;;2.50;;
7205;SDS011;3644;53.480;10.004;2023-08-24T10:57:27;4.13;;;2.50;;
7205;SDS011;3644;53.480;10.004;2023-08-24T11:00:02;2.00;;;1.90;;
7205;SDS011;3644;53.480;10.004;2023-08-24T11:02:31;4.47;;;3.10;;
7205;SDS011;3644;53.480;10.004;2023-08-24T11:10:20;4.37;;;2.63;;
7205;SDS011;3644;53.480;10.004;2023-08-24T11:13:05;2.93;;;1.77;;
7205;SDS011;3644;53.480;10.004;2023-08-24T11:15:48;12.80;;;2.33;;
7205;SDS011;3644;53.480;10.004;2023-08-24T11:18:23;5.37;;;2.27;;
7205;SDS011;3644;53.480;10.004;2023-08-24T11:20:55;8.80;;;2.30;;
7205;SDS011;3644;53.480;10.004;2023-08-24T11:23:31;4.87;;;2.80;;
7205;SDS011;3644;53.480;10.004;2023-08-24T11:26:00;5.10;;;2.30;;
7205;SDS011;3644;53.480;10.004;2023-08-24T11:28:29;4.60;;;2.83;;
7205;SDS011;3644;53.480;10.004;2023-08-24T11:30:56;2.50;;;2.00;;
7205;SDS011;3644;53.480;10.004;2023-08-24T11:33:32;3.50;;;1.90;;
7205;SDS011;3644;53.480;10.004;2023-08-24T11:35:59;4.30;;;2.20;;
7205;SDS011;3644;53.480;10.004;2023-08-24T11:38:34;5.13;;;2.50;;
7205;SDS011;3644;53.480;10.004;2023-08-24T11:41:10;4.83;;;2.50;;
7205;SDS011;3644;53.480;10.004;2023-08-24T11:43:39;7.47;;;2.23;;
7205;SDS011;3644;53.480;10.004;2023-08-24T11:46:04;4.50;;;2.33;;
7205;SDS011;3644;53.480;10.004;2023-08-24T11:48:30;9.80;;;2.60;;
7205;SDS011;3644;53.480;10.004;2023-08-24T11:50:57;7.03;;;2.30;;
7205;SDS011;3644;53.480;10.004;2023-08-24T11:53:23;6.20;;;2.20;;
7205;SDS011;3644;53.480;10.004;2023-08-24T11:55:49;8.90;;;2.20;;
7205;SDS011;3644;53.480;10.004;2023-08-24T11:58:17;7.63;;;1.97;;
7205;SDS011;3644;53.480;10.004;2023-08-24T12:00:43;4.73;;;1.77;;
7205;SDS011;3644;53.480;10.004;2023-08-24T12:03:09;5.10;;;2.60;;
7205;SDS011;3644;53.480;10.004;2023-08-24T12:05:36;2.57;;;2.20;;
7205;SDS011;3644;53.480;10.004;2023-08-24T12:08:01;4.47;;;2.43;;
7205;SDS011;3644;53.480;10.004;2023-08-24T12:10:27;8.90;;;2.10;;
7205;SDS011;3644;53.480;10.004;2023-08-24T12:13:05;5.80;;;2.27;;
7205;SDS011;3644;53.480;10.004;2023-08-24T12:15:34;4.27;;;1.93;;
7205;SDS011;3644;53.480;10.004;2023-08-24T12:18:11;5.63;;;2.10;;
7205;SDS011;3644;53.480;10.004;2023-08-24T12:20:37;2.80;;;1.73;;
7205;SDS011;3644;53.480;10.004;2023-08-24T12:23:03;4.07;;;2.00;;
7205;SDS011;3644;53.480;10.004;2023-08-24T12:25:28;4.47;;;2.30;;
7205;SDS011;3644;53.480;10.004;2023-08-24T12:28:09;2.50;;;1.70;;
7205;SDS011;3644;53.480;10.004;2023-08-24T12:30:49;4.50;;;2.00;;
7205;SDS011;3644;53.480;10.004;2023-08-24T12:33:25;2.10;;;1.70;;
7205;SDS011;3644;53.480;10.004;2023-08-24T12:35:54;1.83;;;1.60;;
7205;SDS011;3644;53.480;10.004;2023-08-24T12:38:21;3.37;;;2.10;;
7205;SDS011;3644;53.480;10.004;2023-08-24T12:40:47;3.63;;;1.97;;
7205;SDS011;3644;53.480;10.004;2023-08-24T12:43:13;3.73;;;1.57;;
7205;SDS011;3644;53.480;10.004;2023-08-24T12:45:39;5.67;;;1.60;;
7205;SDS011;3644;53.480;10.004;2023-08-24T12:48:05;5.77;;;1.53;;
7205;SDS011;3644;53.480;10.004;2023-08-24T12:50:32;3.53;;;1.70;;
7205;SDS011;3644;53.480;10.004;2023-08-24T12:53:01;2.60;;;1.60;;
7205;SDS011;3644;53.480;10.004;2023-08-24T12:55:28;2.77;;;1.80;;
7205;SDS011;3644;53.480;10.004;2023-08-24T12:57:54;3.47;;;1.90;;
7205;SDS011;3644;53.480;10.004;2023-08-24T13:00:19;2.50;;;1.60;;
7205;SDS011;3644;53.480;10.004;2023-08-24T13:02:46;1.73;;;1.63;;
7205;SDS011;3644;53.480;10.004;2023-08-24T13:05:14;5.93;;;2.07;;
7205;SDS011;3644;53.480;10.004;2023-08-24T13:07:39;2.13;;;1.60;;
7205;SDS011;3644;53.480;10.004;2023-08-24T13:10:05;2.80;;;1.67;;
7205;SDS011;3644;53.480;10.004;2023-08-24T13:12:31;1.40;;;1.30;;
7205;SDS011;3644;53.480;10.004;2023-08-24T13:14:57;1.50;;;1.40;;
7205;SDS011;3644;53.480;10.004;2023-08-24T13:17:23;2.10;;;1.57;;
7205;SDS011;3644;53.480;10.004;2023-08-24T13:19:48;2.90;;;1.80;;
7205;SDS011;3644;53.480;10.004;2023-08-24T13:22:14;2.10;;;1.53;;
7205;SDS011;3644;53.480;10.004;2023-08-24T13:24:40;3.20;;;2.03;;
7205;SDS011;3644;53.480;10.004;2023-08-24T13:27:07;7.20;;;3.37;;
7205;SDS011;3644;53.480;10.004;2023-08-24T13:29:35;2.97;;;2.03;;
7205;SDS011;3644;53.480;10.004;2023-08-24T13:32:01;3.20;;;1.80;;
7205;SDS011;3644;53.480;10.004;2023-08-24T13:34:27;4.97;;;1.83;;
7205;SDS011;3644;53.480;10.004;2023-08-24T13:36:52;1.80;;;1.70;;
7205;SDS011;3644;53.480;10.004;2023-08-24T13:39:18;3.90;;;1.93;;
7205;SDS011;3644;53.480;10.004;2023-08-24T13:41:43;1.70;;;1.60;;
7205;SDS011;3644;53.480;10.004;2023-08-24T13:44:09;5.07;;;2.17;;
7205;SDS011;3644;53.480;10.004;2023-08-24T13:46:34;4.13;;;3.73;;
7205;SDS011;3644;53.480;10.004;2023-08-24T13:49:00;1.70;;;1.60;;
7205;SDS011;3644;53.480;10.004;2023-08-24T13:51:25;4.20;;;2.07;;
7205;SDS011;3644;53.480;10.004;2023-08-24T13:53:51;1.77;;;1.60;;
7205;SDS011;3644;53.480;10.004;2023-08-24T13:56:16;5.50;;;1.93;;
7205;SDS011;3644;53.480;10.004;2023-08-24T13:58:42;2.50;;;1.70;;
7205;SDS011;3644;53.480;10.004;2023-08-24T14:01:07;2.57;;;1.70;;
7205;SDS011;3644;53.480;10.004;2023-08-24T14:03:35;1.70;;;1.60;;
7205;SDS011;3644;53.480;10.004;2023-08-24T14:06:02;2.30;;;1.73;;
7205;SDS011;3644;53.480;10.004;2023-08-24T14:08:28;2.57;;;2.20;;
7205;SDS011;3644;53.480;10.004;2023-08-24T14:10:53;3.70;;;1.97;;
7205;SDS011;3644;53.480;10.004;2023-08-24T14:13:19;6.27;;;1.73;;
7205;SDS011;3644;53.480;10.004;2023-08-24T14:15:45;5.43;;;1.63;;
7205;SDS011;3644;53.480;10.004;2023-08-24T14:18:13;2.10;;;1.33;;
7205;SDS011;3644;53.480;10.004;2023-08-24T14:20:39;4.80;;;2.40;;
7205;SDS011;3644;53.480;10.004;2023-08-24T14:23:04;3.53;;;1.87;;
7205;SDS011;3644;53.480;10.004;2023-08-24T14:25:30;2.13;;;1.67;;
7205;SDS011;3644;53.480;10.004;2023-08-24T14:27:55;1.77;;;1.63;;
7205;SDS011;3644;53.480;10.004;2023-08-24T14:30:21;2.00;;;1.70;;
7205;SDS011;3644;53.480;10.004;2023-08-24T14:32:46;3.60;;;1.80;;
7205;SDS011;3644;53.480;10.004;2023-08-24T14:35:12;1.93;;;1.70;;
7205;SDS011;3644;53.480;10.004;2023-08-24T14:37:37;4.30;;;1.87;;
7205;SDS011;3644;53.480;10.004;2023-08-24T14:40:04;5.67;;;1.90;;
7205;SDS011;3644;53.480;10.004;2023-08-24T14:42:30;2.63;;;1.90;;
7205;SDS011;3644;53.480;10.004;2023-08-24T14:44:56;2.70;;;1.77;;
7205;SDS011;3644;53.480;10.004;2023-08-24T14:47:21;2.00;;;1.67;;
7205;SDS011;3644;53.480;10.004;2023-08-24T14:49:47;5.80;;;2.10;;
7205;SDS011;3644;53.480;10.004;2023-08-24T14:52:13;2.13;;;1.93;;
7205;SDS011;3644;53.480;10.004;2023-08-24T14:54:39;3.87;;;1.97;;
7205;SDS011;3644;53.480;10.004;2023-08-24T14:57:05;4.40;;;1.53;;
7205;SDS011;3644;53.480;10.004;2023-08-24T14:59:31;3.87;;;2.27;;
7205;SDS011;3644;53.480;10.004;2023-08-24T15:01:57;3.27;;;1.70;;
7205;SDS011;3644;53.480;10.004;2023-08-24T15:04:25;5.20;;;1.90;;
7205;SDS011;3644;53.480;10.004;2023-08-24T15:06:52;3.00;;;2.00;;
7205;SDS011;3644;53.480;10.004;2023-08-24T15:09:17;4.07;;;1.60;;
7205;SDS011;3644;53.480;10.004;2023-08-24T15:11:43;2.00;;;1.40;;
7205;SDS011;3644;53.480;10.004;2023-08-24T15:14:08;3.00;;;1.70;;
7205;SDS011;3644;53.480;10.004;2023-08-24T15:16:34;3.33;;;2.10;;